Saint Louis, Missouri
Current Conditions -  °F | °C
As of 12:53 PM on Sunday 23 Nov 2014 (Local Time) from KCPS Reporting Station
Heavy Rain Heavy Rain  
Wind Chill: 13°   Ceiling: 800
Heat Index: 13°   Visibility: 1.5mi
Dew Point: 12°   Wind: 12mph
Humidity: 93%   Direction: 150°SSE
Pressure: 29.47"   Gusts: NA
Location:  38.63°N, 90.24°W
Report Text: KCPS 231853Z 15010KT 1 1/2SM +RA BR BKN008 BKN011 OVC042 13/12 A2947 RMK AO2 SLP978 P0020 T01280117
Loading
Personal Weather Stations






























Interactive Weather Map New forecast layout! Learn more

10-Day Weather Forecast

Advertisements
Track Severe Weather on mobile